createdAt,value
2023-05-16T00:01:19.826Z,99637.94
2023-05-16T00:03:47.764Z,99636.16
2023-05-16T00:06:15.871Z,99648.31
2023-05-16T00:08:43.544Z,99648.97
2023-05-16T00:11:12.982Z,99648.38
2023-05-16T00:13:42.407Z,99636.03
2023-05-16T00:16:11.841Z,99637.00
2023-05-16T00:18:39.710Z,99638.81
2023-05-16T00:21:07.943Z,99652.06
2023-05-16T00:23:35.670Z,99655.56
2023-05-16T00:26:03.835Z,99650.69
2023-05-16T00:28:32.759Z,99650.94
2023-05-16T00:31:01.763Z,99653.22
2023-05-16T00:33:29.372Z,99654.84
2023-05-16T00:35:57.448Z,99653.22
2023-05-16T00:38:26.089Z,99649.38
2023-05-16T00:40:54.019Z,99650.41
2023-05-16T00:43:21.703Z,99653.31
2023-05-16T00:45:53.336Z,99651.09
2023-05-16T00:48:21.177Z,99648.97
2023-05-16T00:50:49.620Z,99655.13
2023-05-16T00:53:17.598Z,99649.03
2023-05-16T00:55:45.878Z,99649.94
2023-05-16T00:58:14.338Z,99638.69
2023-05-16T01:00:42.236Z,99645.94
2023-05-16T01:03:12.991Z,99649.22
2023-05-16T01:05:41.011Z,99652.19
2023-05-16T01:08:08.914Z,99641.81
2023-05-16T01:10:43.518Z,99652.03
2023-05-16T01:13:16.978Z,99658.88
2023-05-16T01:15:51.732Z,99652.78
2023-05-16T01:18:29.976Z,99656.06
2023-05-16T01:21:03.903Z,99649.38
2023-05-16T01:23:43.713Z,99644.09
2023-05-16T01:26:16.601Z,99648.34
2023-05-16T01:28:46.611Z,99650.72
2023-05-16T01:31:14.398Z,99646.78
2023-05-16T01:33:42.209Z,99643.09
2023-05-16T01:36:14.844Z,99654.13
2023-05-16T01:38:47.230Z,99656.44
2023-05-16T01:41:23.361Z,99655.78
2023-05-16T01:43:56.089Z,99658.69
2023-05-16T01:46:29.795Z,99655.88
2023-05-16T01:49:07.045Z,99652.50
2023-05-16T01:51:39.670Z,99656.59
2023-05-16T01:54:13.722Z,99659.94
2023-05-16T01:56:48.609Z,99656.78
2023-05-16T01:59:16.667Z,99657.88
2023-05-16T02:01:44.322Z,99659.78
2023-05-16T02:04:13.751Z,99658.69
2023-05-16T02:06:43.164Z,99664.84
2023-05-16T02:09:10.975Z,99663.41
2023-05-16T02:11:43.429Z,99672.88
2023-05-16T02:14:11.282Z,99662.06
2023-05-16T02:16:39.535Z,99671.56
2023-05-16T02:19:07.700Z,99665.13
2023-05-16T02:21:35.516Z,99672.47
2023-05-16T02:24:03.549Z,99669.19
2023-05-16T02:26:31.315Z,99670.69
2023-05-16T02:29:00.612Z,99662.38
2023-05-16T02:31:29.073Z,99664.44
2023-05-16T02:33:57.136Z,99656.22
2023-05-16T02:36:25.046Z,99668.63
2023-05-16T02:38:53.004Z,99664.59
2023-05-16T02:41:23.286Z,99659.81
2023-05-16T02:43:51.179Z,99668.75
2023-05-16T02:46:27.875Z,99665.41
2023-05-16T02:48:56.180Z,99657.88
2023-05-16T02:51:25.926Z,99658.75
2023-05-16T02:53:54.488Z,99668.03
2023-05-16T02:56:22.497Z,99666.50
2023-05-16T02:58:51.018Z,99666.75
2023-05-16T03:01:19.125Z,99668.06
2023-05-16T03:03:48.329Z,99673.00
2023-05-16T03:06:16.198Z,99674.44
2023-05-16T03:08:43.895Z,99682.72
2023-05-16T03:11:11.814Z,99674.91
2023-05-16T03:13:41.719Z,99672.06
2023-05-16T03:16:10.005Z,99672.31
2023-05-16T03:18:37.769Z,99676.00
2023-05-16T03:21:07.722Z,99675.44
2023-05-16T03:23:35.505Z,99680.34
2023-05-16T03:26:06.359Z,99686.72
2023-05-16T03:28:34.000Z,99682.84
2023-05-16T03:31:01.926Z,99685.94
2023-05-16T03:33:29.809Z,99687.97
2023-05-16T03:35:58.319Z,99693.69
2023-05-16T03:38:27.490Z,99698.56
2023-05-16T03:40:55.474Z,99690.78
2023-05-16T03:43:23.055Z,99704.28
2023-05-16T03:45:51.020Z,99691.75
2023-05-16T03:48:18.695Z,99701.06
2023-05-16T03:50:46.762Z,99700.28
2023-05-16T03:53:14.522Z,99701.47
2023-05-16T03:55:43.993Z,99704.31
2023-05-16T03:58:12.170Z,99712.06
2023-05-16T04:00:40.056Z,99707.97
2023-05-16T04:03:08.683Z,99709.16
2023-05-16T04:05:36.832Z,99704.13
2023-05-16T04:08:04.611Z,99713.63
2023-05-16T04:10:32.456Z,99706.41
2023-05-16T04:13:01.388Z,99722.19
2023-05-16T04:15:29.454Z,99719.22
2023-05-16T04:17:57.328Z,99733.16
2023-05-16T04:20:25.310Z,99722.47
2023-05-16T04:22:53.264Z,99733.84
2023-05-16T04:25:21.678Z,99730.53
2023-05-16T04:27:49.291Z,99735.81
2023-05-16T04:30:19.427Z,99729.59
2023-05-16T04:32:47.076Z,99723.56
2023-05-16T04:35:15.334Z,99736.72
2023-05-16T04:37:42.984Z,99741.19
2023-05-16T04:40:11.439Z,99737.16
2023-05-16T04:42:39.027Z,99739.25
2023-05-16T04:45:10.883Z,99743.97
2023-05-16T04:47:40.156Z,99741.75
2023-05-16T04:50:09.883Z,99744.06
2023-05-16T04:52:38.329Z,99756.97
2023-05-16T04:55:06.959Z,99758.53
2023-05-16T04:57:34.631Z,99758.78
2023-05-16T05:00:02.763Z,99752.31
2023-05-16T05:02:30.433Z,99750.22
2023-05-16T05:04:59.461Z,99757.28
2023-05-16T05:07:29.237Z,99766.91
2023-05-16T05:09:57.003Z,99741.28
2023-05-16T05:12:25.770Z,99765.50
2023-05-16T05:14:53.495Z,99762.47
2023-05-16T05:17:21.938Z,99775.38
2023-05-16T05:19:49.587Z,99779.03
2023-05-16T05:22:18.825Z,99761.81
2023-05-16T05:24:46.949Z,99780.06
2023-05-16T05:27:14.889Z,99775.31
2023-05-16T05:29:42.813Z,99778.41
2023-05-16T05:32:10.854Z,99774.44
2023-05-16T05:34:38.561Z,99777.09
2023-05-16T05:37:06.652Z,99779.22
2023-05-16T05:39:35.626Z,99773.44
2023-05-16T05:42:03.736Z,99783.09
2023-05-16T05:44:31.745Z,99785.75
2023-05-16T05:46:59.917Z,99777.97
2023-05-16T05:49:28.474Z,99783.69
2023-05-16T05:51:56.388Z,99783.91
2023-05-16T05:54:24.752Z,99791.19
2023-05-16T05:56:53.944Z,99793.28
2023-05-16T05:59:21.529Z,99799.94
2023-05-16T06:01:53.023Z,99790.72
2023-05-16T06:04:21.148Z,99799.53
2023-05-16T06:06:49.837Z,99802.00
2023-05-16T06:09:17.443Z,99795.63
2023-05-16T06:11:45.978Z,99795.28
2023-05-16T06:14:15.504Z,99797.72
2023-05-16T06:16:44.064Z,99806.91
2023-05-16T06:19:12.569Z,99805.81
2023-05-16T06:21:40.675Z,99814.78
2023-05-16T06:24:08.409Z,99814.69
2023-05-16T06:26:36.960Z,99814.31
2023-05-16T06:29:04.867Z,99818.16
2023-05-16T06:31:33.936Z,99816.19
2023-05-16T06:34:01.994Z,99823.75
2023-05-16T06:36:29.608Z,99815.94
2023-05-16T06:38:57.234Z,99819.34
2023-05-16T06:41:26.351Z,99819.38
2023-05-16T06:43:54.124Z,99821.03
2023-05-16T06:46:21.796Z,99822.41
2023-05-16T06:48:51.124Z,99823.16
2023-05-16T06:51:18.760Z,99824.03
2023-05-16T06:53:46.621Z,99835.84
2023-05-16T06:56:14.272Z,99834.59
2023-05-16T06:58:42.614Z,99835.41
2023-05-16T07:01:10.279Z,99838.13
2023-05-16T07:03:38.034Z,99842.56
2023-05-16T07:06:07.349Z,99850.69
2023-05-16T07:08:36.283Z,99850.03
2023-05-16T07:11:04.035Z,99852.63
2023-05-16T07:13:33.694Z,99856.88
2023-05-16T07:16:02.904Z,99776.78
2023-05-16T07:18:30.954Z,99861.25
2023-05-16T07:20:59.008Z,99864.97
2023-05-16T07:23:28.410Z,99856.13
2023-05-16T07:25:56.382Z,99861.38
2023-05-16T07:28:24.168Z,99862.75
2023-05-16T07:30:51.820Z,99858.41
2023-05-16T07:33:19.580Z,99868.59
2023-05-16T07:35:49.907Z,99869.81
2023-05-16T07:38:17.856Z,99878.22
2023-05-16T07:40:47.041Z,99879.97
2023-05-16T07:43:15.086Z,99882.09
2023-05-16T07:45:42.834Z,99882.03
2023-05-16T07:48:10.844Z,99886.75
2023-05-16T07:50:38.524Z,99904.06
2023-05-16T07:53:06.610Z,99905.44
2023-05-16T07:55:34.302Z,99901.84
2023-05-16T07:58:04.257Z,99902.38
2023-05-16T08:00:32.344Z,99900.66
2023-05-16T08:03:00.289Z,99902.06
2023-05-16T08:05:28.396Z,99903.66
2023-05-16T08:07:56.337Z,99910.75
2023-05-16T08:10:24.330Z,99910.75
2023-05-16T08:12:53.341Z,99908.59
2023-05-16T08:15:22.631Z,99907.91
2023-05-16T08:17:51.196Z,99906.44
2023-05-16T08:20:19.166Z,99903.91
2023-05-16T08:22:46.838Z,99906.97
2023-05-16T08:25:14.902Z,99908.63
2023-05-16T08:27:42.899Z,99909.66
2023-05-16T08:30:12.310Z,99914.72
2023-05-16T08:32:41.511Z,99917.53
2023-05-16T08:35:11.346Z,99924.97
2023-05-16T08:37:39.048Z,99919.97
2023-05-16T08:40:10.935Z,99924.13
2023-05-16T08:42:38.809Z,99921.69
2023-05-16T08:45:08.976Z,99926.63
2023-05-16T08:47:41.273Z,99922.03
2023-05-16T08:50:11.975Z,99913.16
2023-05-16T08:52:42.695Z,99935.69
2023-05-16T08:55:12.121Z,99938.63
2023-05-16T08:57:40.338Z,99928.03
2023-05-16T09:00:12.440Z,99900.09
2023-05-16T09:02:41.544Z,99947.00
2023-05-16T09:05:13.682Z,99927.03
2023-05-16T09:07:41.606Z,99924.00
2023-05-16T09:10:10.401Z,99933.28
2023-05-16T09:12:38.567Z,99940.88
2023-05-16T09:15:08.449Z,99931.50
2023-05-16T09:17:39.875Z,99929.31
2023-05-16T09:20:16.338Z,99926.28
2023-05-16T09:22:53.408Z,99922.03
2023-05-16T09:25:30.445Z,99931.47
2023-05-16T09:28:01.096Z,99934.97
2023-05-16T09:30:31.791Z,99945.53
2023-05-16T09:33:00.215Z,99956.06
2023-05-16T09:38:00.264Z,99971.22
2023-05-16T09:40:28.107Z,99973.56
2023-05-16T09:43:04.442Z,99971.75
2023-05-16T09:45:33.377Z,99964.75
2023-05-16T09:48:06.443Z,99971.63
2023-05-16T09:50:37.000Z,99969.44
2023-05-16T09:53:05.860Z,99981.34
2023-05-16T09:55:34.017Z,99972.22
2023-05-16T09:58:01.904Z,99978.31
2023-05-16T10:00:31.861Z,99979.91
2023-05-16T10:03:04.032Z,99987.56
2023-05-16T10:05:33.081Z,99969.06
2023-05-16T10:08:04.387Z,99963.50
2023-05-16T10:10:36.212Z,99978.31
2023-05-16T10:13:06.520Z,99980.00
2023-05-16T10:15:35.705Z,99983.22
2023-05-16T10:18:04.870Z,99982.16
2023-05-16T10:20:32.633Z,99981.34
2023-05-16T10:23:03.459Z,99982.41
2023-05-16T10:25:35.155Z,99987.94
2023-05-16T10:28:05.005Z,99988.81
2023-05-16T10:30:35.092Z,99988.09
2023-05-16T10:33:03.396Z,99987.84
2023-05-16T10:35:32.757Z,99994.50
2023-05-16T10:38:02.665Z,99987.19
2023-05-16T10:40:31.477Z,99992.63
2023-05-16T10:43:00.181Z,99969.50
2023-05-16T10:45:28.758Z,99993.75
2023-05-16T10:47:58.458Z,99964.53
2023-05-16T10:50:37.318Z,99993.94
2023-05-16T10:53:20.972Z,99998.97
2023-05-16T10:56:05.932Z,99995.78
2023-05-16T10:58:44.364Z,99996.50
2023-05-16T11:01:33.586Z,99998.38
2023-05-16T11:04:03.358Z,99995.88
2023-05-16T11:06:33.156Z,100007.72
2023-05-16T11:09:10.626Z,99960.16
2023-05-16T11:11:44.358Z,100021.97
2023-05-16T11:14:22.062Z,100016.31
2023-05-16T11:16:51.441Z,100010.44
2023-05-16T11:19:34.068Z,100018.38
2023-05-16T11:22:24.709Z,100015.34
2023-05-16T11:25:00.536Z,100013.16
2023-05-16T11:27:31.068Z,100011.75
2023-05-16T11:30:13.137Z,100010.53
2023-05-16T11:32:43.299Z,99999.56
2023-05-16T11:35:14.785Z,100016.25
2023-05-16T11:37:43.985Z,100022.38
2023-05-16T11:40:14.817Z,99995.47
2023-05-16T11:42:44.421Z,100011.13
2023-05-16T11:45:13.568Z,100027.41
2023-05-16T11:47:42.638Z,100025.38
2023-05-16T11:50:13.979Z,100030.47
2023-05-16T11:52:45.876Z,100023.72
2023-05-16T11:55:28.097Z,100025.31
2023-05-16T11:58:01.436Z,100001.31
2023-05-16T12:00:30.484Z,100026.91
2023-05-16T12:03:04.577Z,100022.34
2023-05-16T12:05:34.056Z,100031.16
2023-05-16T12:08:05.804Z,100030.34
2023-05-16T12:10:35.303Z,100037.00
2023-05-16T12:13:04.332Z,100025.88
2023-05-16T12:15:32.988Z,100037.31
2023-05-16T12:18:01.164Z,100039.69
2023-05-16T12:20:29.235Z,100046.31
2023-05-16T12:22:59.095Z,100045.88
2023-05-16T12:25:28.998Z,100049.22
2023-05-16T12:28:00.956Z,100053.44
2023-05-16T12:30:30.658Z,100014.66
2023-05-16T12:32:59.568Z,100056.63
2023-05-16T12:35:32.550Z,100050.38
2023-05-16T12:38:00.492Z,100051.28
2023-05-16T12:40:30.550Z,100057.78
2023-05-16T12:43:00.076Z,100061.47
2023-05-16T12:45:29.805Z,100065.16
2023-05-16T12:47:57.531Z,100060.72
2023-05-16T12:50:28.213Z,100020.59
2023-05-16T12:53:00.463Z,100054.06
2023-05-16T12:55:28.772Z,100059.66
2023-05-16T12:57:57.011Z,100048.41
2023-05-16T13:00:26.780Z,100049.84
2023-05-16T13:02:55.090Z,100048.78
2023-05-16T13:05:23.535Z,100058.31
2023-05-16T13:07:52.148Z,100058.44
2023-05-16T13:10:20.321Z,100055.78
2023-05-16T13:12:48.251Z,100055.56
2023-05-16T13:15:16.477Z,100059.63
2023-05-16T13:17:45.621Z,100053.47
2023-05-16T13:20:15.460Z,100053.09
2023-05-16T13:22:44.072Z,100060.56
2023-05-16T13:25:13.035Z,100060.22
2023-05-16T13:27:40.788Z,100066.84
2023-05-16T13:30:09.720Z,100069.88
2023-05-16T13:32:37.999Z,100061.75
2023-05-16T13:35:08.074Z,100066.28
2023-05-16T13:37:35.873Z,100066.50
2023-05-16T13:40:04.459Z,100063.81
2023-05-16T13:42:32.168Z,100055.94
2023-05-16T13:45:00.304Z,100070.50
2023-05-16T13:47:27.962Z,100069.13
2023-05-16T13:49:55.980Z,100074.03
2023-05-16T13:52:24.523Z,100056.56
2023-05-16T13:54:53.663Z,100070.06
2023-05-16T13:57:23.654Z,100067.09
2023-05-16T14:02:22.346Z,100063.34
2023-05-16T14:04:50.242Z,100060.28
2023-05-16T14:07:18.468Z,100050.41
2023-05-16T14:09:46.183Z,100058.44
2023-05-16T14:12:15.903Z,100056.06
2023-05-16T14:14:43.603Z,100052.25
2023-05-16T14:17:11.864Z,100047.13
2023-05-16T14:19:39.778Z,100055.41
2023-05-16T14:22:08.260Z,100052.44
2023-05-16T14:24:36.058Z,100045.50
2023-05-16T14:27:04.664Z,100049.88
2023-05-16T14:29:33.741Z,100040.47
2023-05-16T14:32:02.141Z,100042.19
2023-05-16T14:34:30.201Z,100045.31
2023-05-16T14:36:58.713Z,100050.53
2023-05-16T14:39:27.389Z,100037.19
2023-05-16T14:41:55.363Z,100035.91
2023-05-16T14:44:24.745Z,100010.94
2023-05-16T14:46:53.885Z,100037.06
2023-05-16T14:49:21.897Z,100042.94
2023-05-16T14:51:50.822Z,100032.53
2023-05-16T14:54:19.120Z,100034.53
2023-05-16T14:56:46.850Z,100041.09
2023-05-16T14:59:15.363Z,100030.53
2023-05-16T15:01:43.356Z,100026.25
2023-05-16T15:04:12.661Z,100028.59
2023-05-16T15:06:40.685Z,100026.81
2023-05-16T15:09:08.402Z,100027.16
2023-05-16T15:11:36.663Z,100025.56
2023-05-16T15:14:04.407Z,100017.44
2023-05-16T15:16:32.254Z,100019.63
2023-05-16T15:19:00.421Z,100011.88
2023-05-16T15:21:29.503Z,100010.78
2023-05-16T15:23:57.770Z,100017.38
2023-05-16T15:26:25.575Z,100020.50
2023-05-16T15:28:55.735Z,100018.69
2023-05-16T15:31:23.865Z,100038.22
2023-05-16T15:33:51.730Z,100019.59
2023-05-16T15:36:19.484Z,100023.31
2023-05-16T15:38:48.560Z,100032.75
2023-05-16T15:41:32.104Z,100029.66
2023-05-16T15:44:05.483Z,100033.66
2023-05-16T15:46:33.523Z,100023.22
2023-05-16T15:49:01.434Z,100029.16
2023-05-16T15:51:29.856Z,100026.66
2023-05-16T15:53:58.920Z,100036.72
2023-05-16T15:56:27.073Z,100038.78
2023-05-16T15:58:56.634Z,100048.53
2023-05-16T16:01:24.642Z,100038.78
2023-05-16T16:03:52.461Z,100039.97
2023-05-16T16:06:20.385Z,100048.22
2023-05-16T16:08:48.081Z,100036.19
2023-05-16T16:11:17.247Z,100048.66
2023-05-16T16:13:45.110Z,100039.69
2023-05-16T16:16:12.869Z,100027.81
2023-05-16T16:18:40.852Z,100033.72
2023-05-16T16:21:10.131Z,100053.28
2023-05-16T16:23:38.531Z,100034.53
2023-05-16T16:26:06.914Z,100038.31
2023-05-16T16:28:36.386Z,100044.41
2023-05-16T16:31:04.252Z,100043.06
2023-05-16T16:33:34.283Z,100041.53
2023-05-16T16:36:02.440Z,100045.44
2023-05-16T16:38:30.289Z,100035.56
2023-05-16T16:40:58.245Z,100066.59
2023-05-16T16:43:26.052Z,100052.53
2023-05-16T16:45:55.666Z,100037.38
2023-05-16T16:48:23.405Z,100050.44
2023-05-16T16:50:52.262Z,100058.19
2023-05-16T16:53:19.934Z,100066.06
2023-05-16T16:55:47.685Z,100061.97
2023-05-16T16:58:15.636Z,100057.31
2023-05-16T17:00:44.609Z,100066.63
2023-05-16T17:03:13.849Z,100069.75
2023-05-16T17:05:42.337Z,100071.78
2023-05-16T17:08:10.258Z,100077.44
2023-05-16T17:10:38.000Z,100081.47
2023-05-16T17:13:10.542Z,100084.09
2023-05-16T17:15:38.472Z,100087.63
2023-05-16T17:18:07.738Z,100087.94
2023-05-16T17:20:37.405Z,100072.72
2023-05-16T17:23:05.845Z,100085.25
2023-05-16T17:25:33.635Z,100080.44
2023-05-16T17:28:01.371Z,100081.78
2023-05-16T17:30:29.089Z,100086.13
2023-05-16T17:32:57.549Z,100085.78
2023-05-16T17:35:26.321Z,100085.16
2023-05-16T17:37:55.455Z,100084.44
2023-05-16T17:40:23.895Z,100089.53
2023-05-16T17:42:51.794Z,100096.53
2023-05-16T17:45:19.687Z,100098.78
2023-05-16T17:47:47.765Z,100097.41
2023-05-16T17:50:15.696Z,100099.34
2023-05-16T17:52:44.375Z,100088.00
2023-05-16T17:55:13.445Z,100096.31
2023-05-16T17:57:41.519Z,100099.44
2023-05-16T18:00:10.797Z,100095.81
2023-05-16T18:02:39.465Z,100099.84
2023-05-16T18:05:08.202Z,100067.28
2023-05-16T18:07:35.903Z,100105.00
2023-05-16T18:10:03.950Z,100109.53
2023-05-16T18:12:33.529Z,100109.41
2023-05-16T18:15:01.253Z,100106.69
2023-05-16T18:17:29.665Z,100113.31
2023-05-16T18:19:58.511Z,100124.63
2023-05-16T18:22:27.741Z,100096.44
2023-05-16T18:24:55.428Z,100128.50
2023-05-16T18:27:23.402Z,100134.66
2023-05-16T18:29:52.482Z,100133.69
2023-05-16T18:32:21.745Z,100128.31
2023-05-16T18:34:49.494Z,100127.28
2023-05-16T18:37:17.653Z,100135.34
2023-05-16T18:39:45.848Z,100133.06
2023-05-16T18:42:13.647Z,100133.28
2023-05-16T18:44:41.594Z,100134.75
2023-05-16T18:47:10.750Z,100146.06
2023-05-16T18:49:39.424Z,100149.78
2023-05-16T18:52:08.335Z,100150.19
2023-05-16T18:54:37.441Z,100150.84
2023-05-16T18:57:06.515Z,100154.13
2023-05-16T18:59:35.952Z,100160.50
2023-05-16T19:02:04.687Z,100166.03
2023-05-16T19:04:33.932Z,100163.53
2023-05-16T19:07:04.800Z,100181.22
2023-05-16T19:09:33.586Z,100175.09
2023-05-16T19:12:01.339Z,100180.88
2023-05-16T19:14:29.607Z,100188.44
2023-05-16T19:16:57.599Z,100195.22
2023-05-16T19:19:25.869Z,100197.28
2023-05-16T19:21:55.039Z,100198.13
2023-05-16T19:24:22.844Z,100204.25
2023-05-16T19:26:50.558Z,100210.00
2023-05-16T19:29:18.996Z,100209.63
2023-05-16T19:31:46.851Z,100206.75
2023-05-16T19:34:15.111Z,100219.47
2023-05-16T19:36:43.315Z,100213.34
2023-05-16T19:39:12.353Z,100215.59
2023-05-16T19:41:40.636Z,100218.44
2023-05-16T19:44:08.357Z,100223.97
2023-05-16T19:46:36.709Z,100225.59
2023-05-16T19:49:04.712Z,100232.13
2023-05-16T19:51:41.289Z,100232.31
2023-05-16T19:54:11.675Z,100237.41
2023-05-16T19:56:39.726Z,100240.72
2023-05-16T19:59:07.456Z,100223.00
2023-05-16T20:01:35.468Z,100255.84
2023-05-16T20:04:05.439Z,100258.84
2023-05-16T20:06:33.351Z,100259.84
2023-05-16T20:09:01.750Z,100259.94
2023-05-16T20:11:30.808Z,100262.91
2023-05-16T20:14:00.431Z,100262.44
2023-05-16T20:16:28.250Z,100279.50
2023-05-16T20:18:56.380Z,100280.91
2023-05-16T20:21:24.104Z,100279.16
2023-05-16T20:23:52.132Z,100284.09
2023-05-16T20:26:20.127Z,100291.16
2023-05-16T20:28:49.133Z,100297.75
2023-05-16T20:31:17.047Z,100287.06
2023-05-16T20:33:46.560Z,100287.63
2023-05-16T20:36:14.966Z,100297.63
2023-05-16T20:38:42.706Z,100290.50
2023-05-16T20:41:10.826Z,100291.69
2023-05-16T20:43:38.880Z,100295.09
2023-05-16T20:46:08.017Z,100297.47
2023-05-16T20:48:36.246Z,100307.94
2023-05-16T20:51:04.093Z,100296.38
2023-05-16T20:53:32.162Z,100299.34
2023-05-16T20:55:59.862Z,100298.16
2023-05-16T20:58:27.836Z,100294.84
2023-05-16T21:00:55.765Z,100302.84
2023-05-16T21:03:24.803Z,100301.94
2023-05-16T21:05:52.861Z,100308.84
2023-05-16T21:08:20.605Z,100301.47
2023-05-16T21:10:48.549Z,100304.59
2023-05-16T21:13:16.249Z,100306.28
2023-05-16T21:15:43.945Z,100319.53
2023-05-16T21:18:11.666Z,100314.31
2023-05-16T21:20:41.359Z,100318.63
2023-05-16T21:23:09.083Z,100313.25
2023-05-16T21:25:36.938Z,100314.22
2023-05-16T21:28:05.151Z,100316.22
2023-05-16T21:30:32.936Z,100328.56
2023-05-16T21:33:01.100Z,100319.81
2023-05-16T21:35:29.111Z,100332.28
2023-05-16T21:37:58.670Z,100327.22
2023-05-16T21:40:26.418Z,100333.28
2023-05-16T21:42:54.565Z,100326.34
2023-05-16T21:45:22.482Z,100332.69
2023-05-16T21:47:50.722Z,100331.63
2023-05-16T21:50:18.699Z,100344.38
2023-05-16T21:52:46.958Z,100347.78
2023-05-16T21:55:15.990Z,100339.88
2023-05-16T21:57:43.987Z,100347.53
2023-05-16T22:00:12.894Z,100346.59
2023-05-16T22:02:43.258Z,100346.09
2023-05-16T22:05:11.211Z,100355.94
2023-05-16T22:07:39.156Z,100357.28
2023-05-16T22:10:08.296Z,100359.94
2023-05-16T22:12:37.602Z,100356.38
2023-05-16T22:15:06.010Z,100344.06
2023-05-16T22:17:34.146Z,100350.84
2023-05-16T22:20:02.443Z,100355.94
2023-05-16T22:22:30.400Z,100353.75
2023-05-16T22:24:58.246Z,100359.25
2023-05-16T22:27:26.632Z,100366.53
2023-05-16T22:29:55.745Z,100365.44
2023-05-16T22:32:23.896Z,100363.88
2023-05-16T22:34:52.698Z,100368.38
2023-05-16T22:37:20.978Z,100371.31
2023-05-16T22:39:48.669Z,100369.09
2023-05-16T22:42:16.394Z,100375.16
2023-05-16T22:44:44.494Z,100373.41
2023-05-16T22:47:13.556Z,100374.25
2023-05-16T22:49:41.742Z,100374.41
2023-05-16T22:52:09.470Z,100375.50
2023-05-16T22:54:37.808Z,100372.22
2023-05-16T22:57:05.811Z,100372.38
2023-05-16T22:59:34.429Z,100372.03
2023-05-16T23:02:02.068Z,100371.66
2023-05-16T23:04:31.757Z,100369.72
2023-05-16T23:06:59.688Z,100372.56
2023-05-16T23:09:27.581Z,100368.53
2023-05-16T23:11:55.297Z,100371.81
2023-05-16T23:14:23.234Z,100370.97
2023-05-16T23:16:50.946Z,100372.91
2023-05-16T23:19:19.081Z,100363.56
2023-05-16T23:21:48.247Z,100373.06
2023-05-16T23:24:16.432Z,100365.34
2023-05-16T23:26:44.106Z,100369.19
2023-05-16T23:29:12.062Z,100376.25
2023-05-16T23:31:39.766Z,100384.09
2023-05-16T23:34:07.703Z,100383.56
2023-05-16T23:36:35.690Z,100391.78
2023-05-16T23:39:05.385Z,100392.81
2023-05-16T23:41:33.087Z,100393.97
2023-05-16T23:44:00.996Z,100402.13
2023-05-16T23:46:28.654Z,100401.88
2023-05-16T23:48:57.446Z,100409.06
2023-05-16T23:51:25.237Z,100413.16
2023-05-16T23:53:52.885Z,100409.22
2023-05-16T23:56:22.342Z,100366.78
2023-05-16T23:58:50.082Z,100411.00
